Time;durP1;ratioP1;P1;durP2;ratioP2;P2;SDS_P1;SDS_P2;PMS_P1;PMS_P2;Temp;Humidity;BMP_temperature;BMP_pressure;BME280_temperature;BME280_humidity;BME280_pressure;Samples;Min_cycle;Max_cycle;Signal;HPM_P1;HPM_P2
2021/01/15 00:00:12;;;;;;;15.60;13.23;;;2.10;76.10;;;;;;4975326;28;20027;-74
2021/01/15 00:02:37;;;;;;;18.27;13.20;;;2.10;76.40;;;;;;4976525;28;20041;-74
2021/01/15 00:05:04;;;;;;;17.87;12.87;;;2.10;76.20;;;;;;4976456;28;20035;-74
2021/01/15 00:07:30;;;;;;;21.00;13.47;;;2.10;76.00;;;;;;4976421;28;20037;-74
2021/01/15 00:09:56;;;;;;;17.63;11.93;;;2.10;76.00;;;;;;4959138;28;20591;-74
2021/01/15 00:12:22;;;;;;;20.27;13.10;;;2.10;76.10;;;;;;4974990;28;20114;-74
2021/01/15 00:14:47;;;;;;;20.67;13.80;;;2.10;76.20;;;;;;4975495;28;20038;-74
2021/01/15 00:17:13;;;;;;;22.53;13.30;;;2.10;76.00;;;;;;4975114;28;20058;-74
2021/01/15 00:19:38;;;;;;;19.37;13.70;;;2.10;76.10;;;;;;4976545;28;20034;-74
2021/01/15 00:22:04;;;;;;;17.73;12.17;;;2.10;76.00;;;;;;4976095;28;20031;-74
2021/01/15 00:24:29;;;;;;;18.23;12.53;;;2.00;76.70;;;;;;4974858;28;20085;-74
2021/01/15 00:26:55;;;;;;;19.13;12.93;;;2.00;76.40;;;;;;4974549;28;20047;-74
2021/01/15 00:29:21;;;;;;;17.50;13.23;;;2.00;76.70;;;;;;4975936;28;20075;-74
2021/01/15 00:31:46;;;;;;;14.63;12.53;;;2.00;76.50;;;;;;4976046;28;20031;-74
2021/01/15 00:34:13;;;;;;;19.37;13.20;;;2.00;76.50;;;;;;4976126;28;20042;-74
2021/01/15 00:36:39;;;;;;;19.87;13.60;;;2.00;76.50;;;;;;4974882;28;20031;-74
2021/01/15 00:39:05;;;;;;;22.43;13.10;;;2.00;76.50;;;;;;4975764;28;20031;-74
2021/01/15 00:41:37;;;;;;;19.43;13.37;;;2.00;76.70;;;;;;4975738;28;20038;-74
2021/01/15 00:44:03;;;;;;;19.57;13.30;;;1.90;76.70;;;;;;4958934;28;20030;-74
2021/01/15 00:46:31;;;;;;;18.07;13.17;;;1.90;76.60;;;;;;4974795;28;20055;-74
2021/01/15 00:49:04;;;;;;;22.67;13.40;;;2.00;76.60;;;;;;4974784;28;20401;-74
2021/01/15 00:51:30;;;;;;;20.37;12.90;;;2.00;76.40;;;;;;4974190;28;20041;-75
2021/01/15 00:53:56;;;;;;;19.57;12.70;;;2.00;76.00;;;;;;4958435;28;20423;-74
2021/01/15 00:56:22;;;;;;;18.87;12.23;;;1.90;76.10;;;;;;4990412;28;20082;-74
2021/01/15 00:58:49;;;;;;;19.47;13.17;;;1.80;76.70;;;;;;4974300;28;20097;-75
2021/01/15 01:01:15;;;;;;;19.23;13.47;;;1.80;76.90;;;;;;4974365;28;20085;-75
2021/01/15 01:03:41;;;;;;;17.00;12.83;;;1.80;77.00;;;;;;4974272;28;20115;-74
2021/01/15 01:06:13;;;;;;;23.33;13.00;;;1.80;76.90;;;;;;4975471;28;20484;-75
2021/01/15 01:08:39;;;;;;;18.53;13.70;;;1.70;77.00;;;;;;4974211;28;20443;-75
2021/01/15 01:11:13;;;;;;;21.73;13.77;;;1.80;77.00;;;;;;4975278;28;20425;-75
2021/01/15 01:13:39;;;;;;;18.90;13.93;;;1.80;77.10;;;;;;4975598;28;20030;-75
2021/01/15 01:16:05;;;;;;;20.57;13.27;;;1.80;76.80;;;;;;4958164;28;20464;-75
2021/01/15 01:18:33;;;;;;;21.23;14.50;;;1.90;76.70;;;;;;4958003;28;20405;-75
2021/01/15 01:20:58;;;;;;;24.87;14.90;;;1.90;76.40;;;;;;4975201;28;20042;-75
2021/01/15 01:23:24;;;;;;;17.60;14.00;;;1.90;76.00;;;;;;4975142;28;20027;-75
2021/01/15 01:25:50;;;;;;;21.50;14.37;;;1.90;76.10;;;;;;4975411;28;20451;-75
2021/01/15 01:28:17;;;;;;;19.03;13.77;;;1.80;76.40;;;;;;4975170;28;20038;-75
2021/01/15 01:30:42;;;;;;;17.97;13.87;;;1.80;76.40;;;;;;4975008;28;20042;-75
2021/01/15 01:33:08;;;;;;;22.23;14.87;;;1.80;76.50;;;;;;4975045;28;20086;-75
2021/01/15 01:35:34;;;;;;;21.97;14.50;;;1.90;76.50;;;;;;4973751;28;20033;-75
2021/01/15 01:37:59;;;;;;;19.10;14.40;;;1.80;76.40;;;;;;4975411;28;20082;-75
2021/01/15 01:40:25;;;;;;;21.67;15.33;;;1.80;76.40;;;;;;4974958;28;20102;-75
2021/01/15 01:42:50;;;;;;;19.80;14.27;;;1.80;76.20;;;;;;4974744;28;20039;-75
2021/01/15 01:45:16;;;;;;;23.87;15.20;;;1.80;76.20;;;;;;4973612;28;20572;-75
2021/01/15 01:47:42;;;;;;;19.93;15.17;;;1.80;76.60;;;;;;4957536;28;20026;-75
2021/01/15 01:50:08;;;;;;;21.30;15.73;;;1.70;76.70;;;;;;4973621;28;20042;-76
2021/01/15 01:52:34;;;;;;;22.77;16.27;;;1.70;77.20;;;;;;4973612;28;20042;-75
2021/01/15 01:54:59;;;;;;;23.90;16.90;;;1.70;77.90;;;;;;4973734;28;20026;-75
2021/01/15 01:57:25;;;;;;;24.80;16.63;;;1.70;77.30;;;;;;4973634;28;20404;-75
2021/01/15 01:59:51;;;;;;;24.60;16.37;;;1.70;77.00;;;;;;4973708;28;20157;-75
2021/01/15 02:02:16;;;;;;;24.77;17.83;;;1.70;77.10;;;;;;4975400;28;20036;-75
2021/01/15 02:04:42;;;;;;;24.10;17.33;;;1.70;77.20;;;;;;4977389;28;20030;-76
2021/01/15 02:07:07;;;;;;;23.63;16.93;;;1.70;77.10;;;;;;4978110;28;20041;-75
2021/01/15 02:09:43;;;;;;;27.33;17.93;;;1.70;77.30;;;;;;4977267;28;20059;-75
2021/01/15 02:12:46;;;;;;;26.70;18.60;;;1.70;77.20;;;;;;4978397;28;20030;-75
2021/01/15 02:15:24;;;;;;;27.73;17.27;;;1.70;77.40;;;;;;4977020;28;20113;-75
2021/01/15 02:18:24;;;;;;;24.90;17.47;;;1.70;77.40;;;;;;4978316;28;20085;-75
2021/01/15 02:21:05;;;;;;;26.07;18.50;;;1.70;77.40;;;;;;4978611;28;20055;-76
2021/01/15 02:23:37;;;;;;;;;;;1.60;77.70;;;;;;4977524;28;20023;-76
2021/01/15 02:26:24;;;;;;;28.20;17.63;;;1.60;78.00;;;;;;4978319;28;19917;-76
2021/01/15 02:29:09;;;;;;;23.73;17.90;;;1.50;78.00;;;;;;4978248;28;20023;-76
2021/01/15 02:31:47;;;;;;;23.53;18.40;;;1.50;78.40;;;;;;4978446;28;20023;-76
2021/01/15 02:34:50;;;;;;;30.40;19.57;;;1.40;78.60;;;;;;4977078;28;20031;-76
2021/01/15 02:37:16;;;;;;;29.73;19.37;;;1.50;78.40;;;;;;4978284;28;20050;-76
2021/01/15 02:40:07;;;;;;;28.23;19.47;;;1.50;78.40;;;;;;4976998;28;20365;-76
2021/01/15 02:42:35;;;;;;;30.35;19.25;;;1.40;78.80;;;;;;4977370;28;20035;-76
2021/01/15 02:45:03;;;;;;;27.37;19.40;;;1.30;79.30;;;;;;4978114;28;20034;-76
2021/01/15 02:47:31;;;;;;;28.07;19.80;;;1.40;79.50;;;;;;4976805;28;20030;-76
2021/01/15 02:49:57;;;;;;;25.73;19.37;;;1.30;79.60;;;;;;4976455;28;20443;-76
2021/01/15 02:52:23;;;;;;;28.73;18.97;;;1.30;79.80;;;;;;4960387;28;20114;-76
2021/01/15 02:54:48;;;;;;;28.93;20.30;;;1.40;79.80;;;;;;4976334;28;20027;-76
2021/01/15 02:57:14;;;;;;;27.10;20.37;;;1.40;80.30;;;;;;4977924;28;20038;-76
2021/01/15 02:59:40;;;;;;;26.93;20.40;;;1.40;79.40;;;;;;4977323;28;20089;-76
2021/01/15 03:02:14;;;;;;;28.17;20.57;;;1.40;79.40;;;;;;4977814;28;20038;-76
2021/01/15 03:05:03;;;;;;;29.23;20.43;;;1.50;79.40;;;;;;4976464;28;20045;-76
2021/01/15 03:07:29;;;;;;;32.83;20.37;;;1.50;79.50;;;;;;4977427;28;20022;-76
2021/01/15 03:09:59;;;;;;;29.17;20.97;;;1.40;79.60;;;;;;4976357;28;20030;-76
2021/01/15 03:12:25;;;;;;;31.15;20.60;;;1.40;79.90;;;;;;4977399;28;20026;-76
2021/01/15 03:14:54;;;;;;;32.30;21.07;;;1.50;79.70;;;;;;4977477;28;20105;-76
2021/01/15 03:17:29;;;;;;;29.87;19.97;;;1.40;79.70;;;;;;4976704;28;20053;-76
2021/01/15 03:19:54;;;;;;;30.30;20.60;;;1.30;80.20;;;;;;4977362;28;20042;-76
2021/01/15 03:22:20;;;;;;;26.53;21.00;;;1.20;80.50;;;;;;4976523;28;20023;-76
2021/01/15 03:24:54;;;;;;;28.60;21.87;;;1.30;80.70;;;;;;4976753;28;20041;-76
2021/01/15 03:27:20;;;;;;;28.70;19.67;;;1.30;80.50;;;;;;4976241;28;20034;-76
2021/01/15 03:29:45;;;;;;;28.40;20.80;;;1.40;80.20;;;;;;4977476;28;20041;-76
2021/01/15 03:32:11;;;;;;;29.40;20.33;;;1.40;80.10;;;;;;4975986;28;20110;-76
2021/01/15 03:34:37;;;;;;;31.17;21.03;;;1.50;80.00;;;;;;4975991;28;20039;-76
2021/01/15 03:37:03;;;;;;;27.80;20.30;;;1.50;79.40;;;;;;4977240;28;20026;-76
2021/01/15 03:39:28;;;;;;;28.97;21.07;;;1.60;79.20;;;;;;4976965;28;20069;-76
2021/01/15 03:41:54;;;;;;;27.77;19.83;;;1.60;79.00;;;;;;4977351;28;20122;-76
2021/01/15 03:44:19;;;;;;;25.50;19.73;;;1.60;78.90;;;;;;4975490;28;20035;-76
2021/01/15 03:46:45;;;;;;;28.17;20.10;;;1.60;79.60;;;;;;4976893;28;20434;-76
2021/01/15 03:49:11;;;;;;;27.40;19.83;;;1.60;78.90;;;;;;4977106;28;20081;-76
2021/01/15 03:51:36;;;;;;;25.40;19.63;;;1.60;79.00;;;;;;4976557;28;20085;-76
2021/01/15 03:54:02;;;;;;;24.67;18.37;;;1.50;79.40;;;;;;4975600;28;20035;-76
2021/01/15 03:56:28;;;;;;;26.00;18.43;;;1.40;80.20;;;;;;4976531;28;20109;-76
2021/01/15 03:58:54;;;;;;;32.47;19.80;;;1.20;80.60;;;;;;4976659;28;20023;-76
2021/01/15 04:01:19;;;;;;;26.33;19.37;;;1.20;81.10;;;;;;4975415;28;20126;-77
2021/01/15 04:03:45;;;;;;;26.67;18.87;;;1.20;80.90;;;;;;4975546;28;20026;-76
2021/01/15 04:06:10;;;;;;;26.60;19.37;;;1.30;80.40;;;;;;4976618;28;20039;-76
2021/01/15 04:08:36;;;;;;;23.90;18.43;;;1.30;80.00;;;;;;4976561;28;20062;-77
2021/01/15 04:11:01;;;;;;;23.70;18.07;;;1.30;80.10;;;;;;4976408;28;20031;-76
2021/01/15 04:13:27;;;;;;;27.60;18.67;;;1.30;80.10;;;;;;4958949;28;20026;-77
2021/01/15 04:15:53;;;;;;;27.50;18.73;;;1.20;80.20;;;;;;4974929;28;20035;-77
2021/01/15 04:18:18;;;;;;;25.10;18.40;;;1.30;80.00;;;;;;4976381;28;20027;-76
2021/01/15 04:20:44;;;;;;;26.23;18.17;;;1.40;79.30;;;;;;4974754;28;20047;-77
2021/01/15 04:23:10;;;;;;;28.60;19.00;;;1.50;78.80;;;;;;4976200;28;20121;-76
2021/01/15 04:25:35;;;;;;;26.23;19.50;;;1.50;78.60;;;;;;4975684;28;20042;-77
2021/01/15 04:28:02;;;;;;;25.80;19.40;;;1.50;78.40;;;;;;4974981;28;20042;-77
2021/01/15 04:30:28;;;;;;;26.93;18.67;;;1.50;77.90;;;;;;4974734;28;20023;-77
2021/01/15 04:32:53;;;;;;;23.47;18.03;;;1.60;77.80;;;;;;4976072;28;20037;-77
2021/01/15 04:35:19;;;;;;;23.27;18.13;;;1.60;77.50;;;;;;4975855;28;20424;-77
2021/01/15 04:37:47;;;;;;;27.80;18.83;;;1.60;77.50;;;;;;4958874;28;20050;-76
2021/01/15 04:40:13;;;;;;;27.03;17.43;;;1.60;77.30;;;;;;4975779;28;20420;-77
2021/01/15 04:42:44;;;;;;;27.30;19.30;;;1.60;77.20;;;;;;4975723;28;20031;-77
2021/01/15 04:45:16;;;;;;;29.65;19.00;;;1.50;77.30;;;;;;4975616;28;20034;-77
2021/01/15 04:47:50;;;;;;;23.63;16.93;;;1.50;77.10;;;;;;4975987;28;20023;-76
2021/01/15 04:50:17;;;;;;;26.00;18.30;;;1.50;77.00;;;;;;4974543;28;20077;-77
2021/01/15 04:52:52;;;;;;;23.80;17.37;;;1.50;76.90;;;;;;4975248;28;20357;-77
2021/01/15 04:55:22;;;;;;;21.17;16.50;;;1.50;76.60;;;;;;4976098;28;20023;-76
2021/01/15 04:57:57;;;;;;;21.00;16.90;;;1.50;77.10;;;;;;4974918;28;20027;-76
2021/01/15 05:00:25;;;;;;;26.73;16.87;;;1.50;76.60;;;;;;4958594;28;20109;-76
2021/01/15 05:02:50;;;;;;;27.53;16.37;;;1.40;76.40;;;;;;4974359;28;20396;-77
2021/01/15 05:05:26;;;;;;;22.90;16.80;;;1.40;76.10;;;;;;4974483;28;20031;-77
2021/01/15 05:08:14;;;;;;;23.43;16.03;;;1.40;76.20;;;;;;4974559;28;20030;-77
2021/01/15 05:10:41;;;;;;;18.43;14.77;;;1.30;76.10;;;;;;4957985;28;20023;-77
2021/01/15 05:13:08;;;;;;;22.00;15.37;;;1.30;75.90;;;;;;4975574;28;20106;-77
2021/01/15 05:15:34;;;;;;;19.43;15.03;;;1.30;75.60;;;;;;4975235;28;20121;-77
2021/01/15 05:18:03;;;;;;;17.43;14.50;;;1.40;75.40;;;;;;4974026;28;20058;-77
2021/01/15 05:20:29;;;;;;;20.57;14.87;;;1.40;75.30;;;;;;4975311;28;20039;-76
2021/01/15 05:22:59;;;;;;;17.13;12.57;;;1.40;75.10;;;;;;4957924;28;20035;-76
2021/01/15 05:25:24;;;;;;;19.03;13.40;;;1.40;74.80;;;;;;4973861;28;20453;-76
2021/01/15 05:27:50;;;;;;;17.27;13.37;;;1.50;74.40;;;;;;4975043;28;20062;-76
2021/01/15 05:30:17;;;;;;;18.20;13.17;;;1.50;74.20;;;;;;4973920;28;20023;-76
2021/01/15 05:32:45;;;;;;;16.03;11.50;;;1.60;73.60;;;;;;4974956;28;20031;-76
2021/01/15 05:35:11;;;;;;;20.23;12.17;;;1.50;73.20;;;;;;4973851;28;20048;-76
2021/01/15 05:37:37;;;;;;;15.33;12.40;;;1.60;73.30;;;;;;4974564;28;20110;-76
2021/01/15 05:40:06;;;;;;;19.00;11.83;;;1.60;73.30;;;;;;4975273;28;20039;-76
2021/01/15 05:42:48;;;;;;;15.10;11.47;;;1.70;73.10;;;;;;4974884;28;20023;-76
2021/01/15 05:45:15;;;;;;;15.47;11.57;;;1.70;72.60;;;;;;4973740;28;20031;-76
2021/01/15 05:47:46;;;;;;;16.20;12.07;;;1.70;72.40;;;;;;4974793;28;20034;-76
2021/01/15 05:50:15;;;;;;;16.80;12.87;;;1.70;72.60;;;;;;4974886;28;20031;-76
2021/01/15 05:52:56;;;;;;;18.37;12.53;;;1.60;72.70;;;;;;4973632;28;20030;-76
2021/01/15 05:55:23;;;;;;;;;;;1.60;73.40;;;;;;4973997;28;20034;-76
2021/01/15 05:57:49;;;;;;;16.97;11.60;;;1.40;73.80;;;;;;4974752;28;19906;-76
2021/01/15 06:00:30;;;;;;;18.40;13.13;;;1.30;74.10;;;;;;4974596;28;20023;-77
2021/01/15 06:02:56;;;;;;;18.52;13.40;;;1.30;74.60;;;;;;4973417;28;20041;-76
2021/01/15 06:05:23;;;;;;;18.70;13.30;;;1.30;74.90;;;;;;4973529;28;20076;-76
2021/01/15 06:07:58;;;;;;;19.47;13.63;;;1.30;74.80;;;;;;4973847;28;20106;-76
2021/01/15 06:10:24;;;;;;;21.73;13.60;;;1.30;74.70;;;;;;4973497;28;20455;-77
2021/01/15 06:12:50;;;;;;;16.73;13.27;;;1.40;74.60;;;;;;4974353;28;20035;-77
2021/01/15 06:15:16;;;;;;;15.93;12.73;;;1.30;74.70;;;;;;4974659;28;20046;-77
2021/01/15 06:17:42;;;;;;;20.57;13.13;;;1.20;75.20;;;;;;4974620;28;20023;-77
2021/01/15 06:20:08;;;;;;;18.97;14.30;;;1.30;75.40;;;;;;4973322;28;20468;-77
2021/01/15 06:22:43;;;;;;;20.07;13.53;;;1.40;75.10;;;;;;4974627;28;20034;-77
2021/01/15 06:25:16;;;;;;;18.43;13.20;;;1.50;74.90;;;;;;4974438;28;20039;-76
2021/01/15 06:27:42;;;;;;;22.70;13.47;;;1.50;74.70;;;;;;4973852;28;20023;-76
2021/01/15 06:30:15;;;;;;;16.43;12.83;;;1.50;74.60;;;;;;4966216;28;20391;-77
2021/01/15 06:32:42;;;;;;;18.20;13.10;;;1.70;74.40;;;;;;4982568;28;20033;-76
2021/01/15 06:35:23;;;;;;;19.03;12.90;;;1.80;73.80;;;;;;5000072;28;20046;-75
2021/01/15 06:38:03;;;;;;;17.02;13.00;;;1.80;73.60;;;;;;5004678;28;20022;-75
2021/01/15 06:40:30;;;;;;;17.08;12.70;;;1.90;73.30;;;;;;4979105;28;20023;-79
2021/01/15 06:42:56;;;;;;;15.63;12.67;;;2.00;73.00;;;;;;4978722;28;20034;-76
2021/01/15 06:45:21;;;;;;;18.37;12.83;;;2.00;72.50;;;;;;4979048;28;20522;-77
2021/01/15 06:47:47;;;;;;;16.27;12.60;;;1.90;72.90;;;;;;4990676;28;20030;-79
2021/01/15 06:50:15;;;;;;;15.87;11.93;;;2.00;73.10;;;;;;4994746;28;20113;-78
2021/01/15 06:52:42;;;;;;;18.87;12.50;;;2.00;72.60;;;;;;4997179;28;20033;-77
2021/01/15 06:55:10;;;;;;;19.67;13.50;;;2.10;72.80;;;;;;4989986;28;20105;-75
2021/01/15 06:57:36;;;;;;;15.33;12.63;;;2.10;72.30;;;;;;4974793;28;20089;-76
2021/01/15 07:00:02;;;;;;;17.50;12.37;;;1.90;73.40;;;;;;4995091;28;20109;-76
2021/01/15 07:02:31;;;;;;;18.03;12.73;;;1.90;73.70;;;;;;4995914;28;20030;-77
2021/01/15 07:05:00;;;;;;;15.10;12.77;;;2.10;73.30;;;;;;4996091;28;20117;-76
2021/01/15 07:07:27;;;;;;;18.00;12.97;;;2.30;72.50;;;;;;4996166;28;20026;-76
2021/01/15 07:09:53;;;;;;;15.10;12.53;;;2.30;72.00;;;;;;4995774;28;20458;-75
2021/01/15 07:12:20;;;;;;;16.90;12.93;;;2.40;71.70;;;;;;4994092;28;20102;-76
2021/01/15 07:14:56;;;;;;;16.03;12.40;;;2.40;71.50;;;;;;4978945;28;20026;-76
2021/01/15 07:17:29;;;;;;;17.20;12.83;;;2.60;71.10;;;;;;4996195;28;20109;-76
2021/01/15 07:20:04;;;;;;;17.47;12.33;;;2.70;70.90;;;;;;4980650;28;20038;-76
2021/01/15 07:22:50;;;;;;;17.93;12.27;;;2.60;70.70;;;;;;4973144;28;20043;-75
2021/01/15 07:25:16;;;;;;;14.77;12.00;;;2.40;70.80;;;;;;4987583;28;20034;-77
2021/01/15 07:27:42;;;;;;;15.03;10.97;;;2.20;71.50;;;;;;4977751;28;20034;-76
2021/01/15 07:30:19;;;;;;;18.60;12.37;;;2.00;72.40;;;;;;5011091;28;20383;-79
2021/01/15 07:32:49;;;;;;;15.23;10.47;;;1.90;72.80;;;;;;5010525;28;20478;-76
2021/01/15 07:35:16;;;;;;;19.53;11.20;;;1.80;73.30;;;;;;5010453;28;20026;-75
2021/01/15 07:37:42;;;;;;;15.60;10.73;;;1.80;73.40;;;;;;4995804;28;20824;-77
2021/01/15 07:40:14;;;;;;;17.63;12.17;;;2.00;72.90;;;;;;4992151;28;20033;-79
2021/01/15 07:42:59;;;;;;;13.83;10.77;;;1.90;73.70;;;;;;4995571;28;20022;-77
2021/01/15 07:45:25;;;;;;;15.87;12.30;;;1.90;73.30;;;;;;4986187;28;20023;-81
2021/01/15 07:47:56;;;;;;;14.77;11.77;;;2.00;73.30;;;;;;4975503;28;20502;-77
2021/01/15 07:50:35;;;;;;;16.30;11.73;;;2.10;72.70;;;;;;4958726;28;20034;-77
2021/01/15 07:53:16;;;;;;;15.47;12.53;;;2.20;72.50;;;;;;4975003;28;20109;-76
2021/01/15 07:55:45;;;;;;;;;;;2.30;72.70;;;;;;4975940;28;20061;-76
2021/01/15 07:58:10;;;;;;;18.20;12.87;;;2.40;72.40;;;;;;4975696;28;19968;-76
2021/01/15 08:00:37;;;;;;;16.80;11.77;;;2.40;72.00;;;;;;4973788;28;20476;-78
2021/01/15 08:03:03;;;;;;;14.10;11.57;;;2.60;71.20;;;;;;4974621;28;20075;-76
2021/01/15 08:05:28;;;;;;;16.50;10.90;;;2.40;71.10;;;;;;4974453;28;20069;-77
2021/01/15 08:08:15;;;;;;;18.37;11.37;;;2.30;71.50;;;;;;4969933;28;20137;-77
2021/01/15 08:10:46;;;;;;;12.83;10.47;;;2.20;72.40;;;;;;4979029;28;20038;-76
2021/01/15 08:13:27;;;;;;;15.68;10.93;;;2.20;72.30;;;;;;4980082;28;20034;-76
2021/01/15 08:15:54;;;;;;;16.33;11.27;;;2.20;71.80;;;;;;4974892;28;20531;-76
2021/01/15 08:18:19;;;;;;;13.90;11.07;;;2.30;71.90;;;;;;4975066;28;20038;-76
2021/01/15 08:20:52;;;;;;;13.43;10.77;;;2.30;70.90;;;;;;4975431;28;20412;-76
2021/01/15 08:23:22;;;;;;;14.47;11.00;;;2.30;71.10;;;;;;4974755;28;20384;-77
2021/01/15 08:25:49;;;;;;;14.60;10.50;;;2.40;70.20;;;;;;4974100;28;20477;-76
2021/01/15 08:28:14;;;;;;;13.47;10.00;;;2.50;70.20;;;;;;4974416;28;20030;-77
2021/01/15 08:31:03;;;;;;;14.37;10.40;;;2.50;69.00;;;;;;4975510;28;20050;-77
2021/01/15 08:33:29;;;;;;;13.40;10.50;;;2.40;69.60;;;;;;4974499;28;20027;-77
2021/01/15 08:35:56;;;;;;;14.23;10.73;;;2.60;69.60;;;;;;4975532;28;20022;-78
2021/01/15 08:38:34;;;;;;;12.53;10.50;;;2.70;68.90;;;;;;4969956;28;20105;-77
2021/01/15 08:41:01;;;;;;;12.70;10.27;;;2.80;68.20;;;;;;4993465;28;20022;-78
2021/01/15 08:43:29;;;;;;;16.03;10.67;;;2.80;68.10;;;;;;4993854;28;20030;-77
2021/01/15 08:45:55;;;;;;;14.90;11.07;;;2.70;68.20;;;;;;4990914;28;20431;-77
2021/01/15 08:48:21;;;;;;;13.03;10.63;;;2.60;68.20;;;;;;4975437;28;20073;-77
2021/01/15 08:50:47;;;;;;;13.53;9.90;;;2.60;68.00;;;;;;4990672;28;20400;-77
2021/01/15 08:53:19;;;;;;;11.87;10.00;;;2.60;68.40;;;;;;4994510;28;20041;-77
2021/01/15 08:55:46;;;;;;;14.07;10.90;;;2.70;67.60;;;;;;4992465;28;20034;-76
2021/01/15 08:58:11;;;;;;;11.93;10.40;;;2.70;68.10;;;;;;5009548;28;20033;-76
2021/01/15 09:00:37;;;;;;;13.60;11.30;;;2.70;67.50;;;;;;4994438;28;20031;-76
2021/01/15 09:03:04;;;;;;;17.30;11.50;;;2.70;67.70;;;;;;5008327;28;20058;-76
2021/01/15 09:05:29;;;;;;;14.00;10.80;;;2.70;67.70;;;;;;4975749;28;20033;-76
2021/01/15 09:07:55;;;;;;;15.17;10.73;;;2.80;67.10;;;;;;4983062;28;20097;-76
2021/01/15 09:10:20;;;;;;;14.20;9.40;;;2.80;67.30;;;;;;4991569;28;20029;-77
2021/01/15 09:12:47;;;;;;;12.67;10.13;;;2.60;67.50;;;;;;4990421;28;20526;-76
2021/01/15 09:15:20;;;;;;;14.50;11.43;;;2.60;68.20;;;;;;4993746;28;20058;-77
2021/01/15 09:17:47;;;;;;;15.73;11.83;;;2.70;68.10;;;;;;4973037;28;20534;-75
2021/01/15 09:20:14;;;;;;;15.43;11.40;;;2.90;67.80;;;;;;4968124;28;20411;-77
2021/01/15 09:22:39;;;;;;;15.83;11.27;;;2.90;67.20;;;;;;4993963;28;20022;-77
2021/01/15 09:25:06;;;;;;;15.30;11.23;;;3.10;67.20;;;;;;4993470;28;20200;-75
2021/01/15 09:27:31;;;;;;;13.43;11.90;;;3.30;66.60;;;;;;4993987;28;20076;-76
2021/01/15 09:29:57;;;;;;;13.67;10.60;;;3.60;65.80;;;;;;4993773;28;20372;-75
2021/01/15 09:32:23;;;;;;;14.07;11.63;;;3.50;64.70;;;;;;4993791;28;20030;-76
2021/01/15 09:34:48;;;;;;;16.00;11.43;;;3.60;65.30;;;;;;4993538;28;20121;-76
2021/01/15 09:37:14;;;;;;;15.57;10.67;;;3.50;64.00;;;;;;4986672;28;20554;-76
2021/01/15 09:39:39;;;;;;;14.20;11.40;;;3.40;64.30;;;;;;4986279;28;20077;-76
2021/01/15 09:42:06;;;;;;;16.20;11.20;;;3.30;65.10;;;;;;4993469;28;20042;-76
2021/01/15 09:44:32;;;;;;;15.23;11.37;;;3.30;65.30;;;;;;4992184;28;20034;-75
2021/01/15 09:47:01;;;;;;;13.93;11.13;;;3.30;65.20;;;;;;4993368;28;20492;-76
2021/01/15 09:49:27;;;;;;;13.07;10.90;;;3.30;65.80;;;;;;4976035;28;20084;-75
2021/01/15 09:51:53;;;;;;;15.77;11.80;;;3.30;65.60;;;;;;4992415;28;20031;-75
2021/01/15 09:54:18;;;;;;;16.17;11.80;;;3.10;65.70;;;;;;4993549;28;20419;-74
2021/01/15 09:56:44;;;;;;;14.80;11.20;;;3.10;66.70;;;;;;4973641;28;20437;-74
2021/01/15 09:59:16;;;;;;;15.10;12.67;;;3.10;67.10;;;;;;4973943;28;20031;-75
2021/01/15 10:01:42;;;;;;;16.07;12.70;;;3.20;66.40;;;;;;4957149;28;20019;-76
2021/01/15 10:04:07;;;;;;;14.83;11.03;;;3.20;66.40;;;;;;4957030;28;20388;-74
2021/01/15 10:06:37;;;;;;;15.70;12.23;;;3.30;66.30;;;;;;4973063;28;20499;-75
2021/01/15 10:09:02;;;;;;;15.27;11.60;;;3.30;66.10;;;;;;4973452;28;20027;-75
2021/01/15 10:11:28;;;;;;;14.47;11.83;;;3.50;65.90;;;;;;4976025;28;20037;-75
2021/01/15 10:14:02;;;;;;;14.53;11.70;;;3.70;65.00;;;;;;4973368;28;20026;-75
2021/01/15 10:16:27;;;;;;;14.87;11.07;;;3.70;64.70;;;;;;4972708;28;20023;-74
2021/01/15 10:18:54;;;;;;;13.20;10.90;;;3.60;64.90;;;;;;4970342;28;20085;-77
2021/01/15 10:21:23;;;;;;;17.43;11.33;;;3.50;65.40;;;;;;4966607;28;20038;-75
2021/01/15 10:23:51;;;;;;;12.80;10.93;;;3.60;66.00;;;;;;4994786;28;20026;-76
2021/01/15 10:26:22;;;;;;;12.83;11.07;;;3.60;65.60;;;;;;5011993;28;20050;-76
2021/01/15 10:28:47;;;;;;;13.45;11.25;;;3.60;66.00;;;;;;4980121;28;20027;-75
2021/01/15 10:31:13;;;;;;;12.57;10.47;;;3.70;66.10;;;;;;4977238;28;20031;-74
2021/01/15 10:33:39;;;;;;;14.47;10.93;;;3.70;65.70;;;;;;4977568;28;20476;-76
2021/01/15 10:36:08;;;;;;;13.57;11.23;;;3.80;66.40;;;;;;4977429;28;20035;-76
2021/01/15 10:38:33;;;;;;;13.60;10.67;;;4.10;65.60;;;;;;4968706;28;20113;-75
2021/01/15 10:40:59;;;;;;;12.70;11.27;;;4.30;64.90;;;;;;4976626;28;20110;-75
2021/01/15 10:43:25;;;;;;;16.07;11.80;;;4.40;63.50;;;;;;4976290;28;20039;-77
2021/01/15 10:45:50;;;;;;;15.20;11.00;;;4.50;63.50;;;;;;4977118;28;20026;-76
2021/01/15 10:48:16;;;;;;;14.97;11.33;;;4.60;63.60;;;;;;4977474;28;20102;-76
2021/01/15 10:50:41;;;;;;;17.60;11.93;;;4.70;63.00;;;;;;4977214;28;20073;-76
2021/01/15 10:53:07;;;;;;;15.17;11.80;;;4.80;62.30;;;;;;4976357;28;20038;-76
2021/01/15 10:55:33;;;;;;;14.53;11.40;;;4.80;62.30;;;;;;4975750;28;20035;-75
2021/01/15 10:57:58;;;;;;;16.00;12.13;;;4.70;62.70;;;;;;4977167;28;20078;-77
2021/01/15 11:00:24;;;;;;;13.73;10.77;;;4.70;62.50;;;;;;4975811;28;20027;-74
2021/01/15 11:02:50;;;;;;;19.00;11.83;;;4.60;63.10;;;;;;4977231;28;20105;-76
2021/01/15 11:05:17;;;;;;;15.47;11.60;;;4.50;63.60;;;;;;4994605;28;20039;-76
2021/01/15 11:07:44;;;;;;;19.33;12.20;;;4.30;64.10;;;;;;4996204;28;20391;-76
2021/01/15 11:10:10;;;;;;;14.13;11.27;;;4.40;64.40;;;;;;4996897;28;20026;-76
2021/01/15 11:12:36;;;;;;;14.90;11.87;;;4.40;64.80;;;;;;4997042;28;20140;-76
2021/01/15 11:15:02;;;;;;;22.93;12.23;;;4.60;64.10;;;;;;4996807;28;20057;-76
2021/01/15 11:17:28;;;;;;;13.53;11.67;;;4.80;63.50;;;;;;4996917;28;20541;-76
2021/01/15 11:19:54;;;;;;;16.50;12.17;;;4.90;63.00;;;;;;4997021;28;20034;-76
2021/01/15 11:22:19;;;;;;;17.93;11.70;;;5.00;63.00;;;;;;4996857;28;20022;-76
2021/01/15 11:24:45;;;;;;;16.53;12.50;;;4.90;62.90;;;;;;4991970;28;20118;-76
2021/01/15 11:27:10;;;;;;;16.23;12.63;;;4.90;62.50;;;;;;4992629;28;20062;-82
2021/01/15 11:29:36;;;;;;;15.87;12.30;;;4.90;63.10;;;;;;4976869;28;20033;-77
2021/01/15 11:32:02;;;;;;;20.97;14.90;;;4.90;62.40;;;;;;4973531;28;20030;-83
2021/01/15 11:34:27;;;;;;;15.73;11.90;;;4.80;62.90;;;;;;4974814;28;20124;-76
2021/01/15 11:36:54;;;;;;;15.57;11.00;;;4.80;62.40;;;;;;4978796;28;20031;-75
2021/01/15 11:39:20;;;;;;;18.37;12.63;;;4.70;62.80;;;;;;4976826;28;20043;-74
2021/01/15 11:41:51;;;;;;;15.83;12.30;;;4.70;63.10;;;;;;4977141;28;20023;-74
2021/01/15 11:44:17;;;;;;;24.30;17.60;;;4.60;63.00;;;;;;4976353;28;20019;-76
2021/01/15 11:46:42;;;;;;;17.43;12.23;;;4.60;64.10;;;;;;4974526;28;20583;-76
2021/01/15 11:49:08;;;;;;;20.47;13.33;;;4.80;63.20;;;;;;4976968;28;20923;-76
2021/01/15 11:51:34;;;;;;;16.17;12.40;;;5.10;63.40;;;;;;4995645;28;20040;-76
2021/01/15 11:53:59;;;;;;;16.03;12.60;;;5.00;62.00;;;;;;4993770;28;20435;-76
2021/01/15 11:56:25;;;;;;;18.47;13.13;;;4.90;62.60;;;;;;4995570;28;20101;-76
2021/01/15 11:58:50;;;;;;;17.30;13.50;;;5.00;62.80;;;;;;4990506;28;20070;-74
2021/01/15 12:01:16;;;;;;;13.83;12.17;;;5.10;61.50;;;;;;4975055;28;20089;-76
2021/01/15 12:03:42;;;;;;;18.77;13.13;;;5.20;61.30;;;;;;4974846;28;20503;-76
2021/01/15 12:06:08;;;;;;;14.23;12.03;;;5.40;60.90;;;;;;4976160;28;20041;-76
2021/01/15 12:08:34;;;;;;;15.47;11.37;;;5.50;60.70;;;;;;4974961;28;20130;-76
2021/01/15 12:11:02;;;;;;;15.70;11.87;;;5.60;59.80;;;;;;4975981;28;20022;-76
2021/01/15 12:13:28;;;;;;;12.73;11.00;;;5.70;59.20;;;;;;4976668;28;20030;-76
2021/01/15 12:15:54;;;;;;;16.80;12.47;;;5.90;57.80;;;;;;4995511;28;20092;-77
2021/01/15 12:18:20;;;;;;;18.07;12.50;;;6.00;57.80;;;;;;5000453;28;20039;-76
2021/01/15 12:20:46;;;;;;;17.00;12.77;;;6.20;57.70;;;;;;4975607;28;20499;-75
2021/01/15 12:23:12;;;;;;;18.90;12.37;;;6.30;58.40;;;;;;4975337;28;20030;-74
2021/01/15 12:25:41;;;;;;;18.37;11.00;;;6.30;56.40;;;;;;4975758;28;20123;-75
2021/01/15 12:28:10;;;;;;;17.93;12.13;;;6.30;55.60;;;;;;4975932;28;20081;-75
2021/01/15 12:30:36;;;;;;;16.43;11.67;;;6.30;54.60;;;;;;4975841;28;20111;-75
2021/01/15 12:33:23;;;;;;;14.50;11.53;;;6.30;54.80;;;;;;4975928;28;20113;-75
2021/01/15 12:35:49;;;;;;;17.57;11.17;;;6.30;55.20;;;;;;4979622;28;20023;-76
2021/01/15 12:38:16;;;;;;;15.10;11.43;;;6.10;55.50;;;;;;4992403;28;20037;-75
2021/01/15 12:40:42;;;;;;;18.60;12.50;;;5.60;57.10;;;;;;4994992;28;20109;-76
2021/01/15 12:43:08;;;;;;;19.60;12.60;;;5.40;59.00;;;;;;4994884;28;20117;-75